createdAt,value
2022-08-06T00:00:03.472Z,101365.28
2022-08-06T00:02:22.719Z,101365.50
2022-08-06T00:04:53.998Z,101378.22
2022-08-06T00:07:22.332Z,101388.94
2022-08-06T00:09:56.519Z,101397.81
2022-08-06T00:12:30.090Z,101400.59
2022-08-06T00:14:58.350Z,101404.09
2022-08-06T00:17:30.188Z,101405.25
2022-08-06T00:20:00.736Z,101423.81
2022-08-06T00:22:29.507Z,101423.16
2022-08-06T00:24:58.381Z,101423.78
2022-08-06T00:27:29.379Z,101427.41
2022-08-06T00:30:14.723Z,101425.25
2022-08-06T00:32:51.824Z,101418.66
2022-08-06T00:35:23.937Z,101424.09
2022-08-06T00:37:59.116Z,101423.50
2022-08-06T00:40:29.441Z,101429.34
2022-08-06T00:43:02.453Z,101420.84
2022-08-06T00:45:38.115Z,101420.06
2022-08-06T00:48:31.356Z,101426.31
2022-08-06T00:51:01.756Z,101428.44
2022-08-06T00:53:33.811Z,101428.72
2022-08-06T00:56:08.248Z,101440.47
2022-08-06T00:58:40.746Z,101433.09
2022-08-06T01:01:16.690Z,101432.16
2022-08-06T01:03:51.552Z,101443.91
2022-08-06T01:06:55.076Z,101445.81
2022-08-06T01:09:10.847Z,101453.94
2022-08-06T01:11:38.995Z,101456.69
2022-08-06T01:14:09.834Z,101452.63
2022-08-06T01:16:56.226Z,101452.72
2022-08-06T01:19:29.856Z,101451.31
2022-08-06T01:22:38.418Z,101462.88
2022-08-06T01:25:20.434Z,101457.09
2022-08-06T01:27:54.186Z,101454.72
2022-08-06T01:30:30.763Z,101456.59
2022-08-06T01:33:15.915Z,101448.25
2022-08-06T01:35:55.326Z,101462.47
2022-08-06T01:38:26.731Z,101456.38
2022-08-06T01:40:54.634Z,101462.63
2022-08-06T01:44:06.636Z,101456.56
2022-08-06T01:46:10.962Z,101457.72
2022-08-06T01:48:38.648Z,101448.84
2022-08-06T01:51:08.665Z,101453.28
2022-08-06T01:54:06.773Z,101458.66
2022-08-06T01:56:57.187Z,101456.00
2022-08-06T01:59:27.486Z,101447.31
2022-08-06T02:01:58.363Z,101449.97
2022-08-06T02:04:29.053Z,101450.06
2022-08-06T02:06:57.970Z,101460.00
2022-08-06T02:09:27.919Z,101466.31
2022-08-06T02:12:27.711Z,101460.44
2022-08-06T02:14:57.730Z,101468.56
2022-08-06T02:18:03.879Z,101455.81
2022-08-06T02:20:37.633Z,101449.66
2022-08-06T02:23:08.514Z,101452.38
2022-08-06T02:25:41.282Z,101467.53
2022-08-06T02:28:10.505Z,101469.50
2022-08-06T02:30:42.917Z,101476.69
2022-08-06T02:33:11.498Z,101479.50
2022-08-06T02:36:02.223Z,101482.44
2022-08-06T02:38:55.535Z,101483.28
2022-08-06T02:42:02.069Z,101488.00
2022-08-06T02:44:37.357Z,101483.91
2022-08-06T02:47:13.388Z,101496.47
2022-08-06T02:49:56.791Z,101495.88
2022-08-06T02:52:32.915Z,101495.03
2022-08-06T02:55:11.801Z,101510.22
2022-08-06T02:57:51.717Z,101518.22
2022-08-06T03:00:20.287Z,101521.66
2022-08-06T03:02:59.425Z,101509.38
2022-08-06T03:05:54.911Z,101516.63
2022-08-06T03:08:19.466Z,101519.34
2022-08-06T03:10:50.387Z,101515.00
2022-08-06T03:13:18.578Z,101516.91
2022-08-06T03:16:00.340Z,101525.94
2022-08-06T03:18:29.074Z,101525.25
2022-08-06T03:20:57.733Z,101527.22
2022-08-06T03:23:26.887Z,101533.34
2022-08-06T03:25:55.604Z,101544.72
2022-08-06T03:28:23.957Z,101546.50
2022-08-06T03:30:55.344Z,101557.25
2022-08-06T03:33:41.997Z,101557.34
2022-08-06T03:36:11.657Z,101559.16
2022-08-06T03:38:44.470Z,101558.47
2022-08-06T03:41:18.194Z,101562.03
2022-08-06T03:43:56.763Z,101569.28
2022-08-06T03:46:34.047Z,101580.63
2022-08-06T03:49:04.508Z,101579.03
2022-08-06T03:51:52.501Z,101579.03
2022-08-06T03:54:30.419Z,101586.94
2022-08-06T03:57:10.278Z,101586.94
2022-08-06T03:59:43.584Z,101597.44
2022-08-06T04:02:37.301Z,101603.56
2022-08-06T04:05:20.926Z,101602.81
2022-08-06T04:07:55.415Z,101608.09
2022-08-06T04:10:35.293Z,101606.22
2022-08-06T04:14:03.106Z,101606.81
2022-08-06T04:15:57.369Z,101611.25
2022-08-06T04:18:27.257Z,101613.75
2022-08-06T04:21:07.609Z,101621.78
2022-08-06T04:23:45.520Z,101617.50
2022-08-06T04:26:14.832Z,101615.34
2022-08-06T04:28:47.501Z,101624.56
2022-08-06T04:32:12.965Z,101626.56
2022-08-06T04:34:19.443Z,101632.44
2022-08-06T04:36:53.676Z,101631.34
2022-08-06T04:39:25.710Z,101636.63
2022-08-06T04:42:05.988Z,101641.47
2022-08-06T04:44:34.539Z,101639.44
2022-08-06T04:47:01.955Z,101640.97
2022-08-06T04:50:01.795Z,101652.31
2022-08-06T04:52:34.615Z,101655.91
2022-08-06T04:55:24.173Z,101657.53
2022-08-06T04:57:57.568Z,101660.50
2022-08-06T05:00:59.932Z,101669.97
2022-08-06T05:04:06.921Z,101666.22
2022-08-06T05:06:47.399Z,101671.44
2022-08-06T05:09:22.787Z,101671.13
2022-08-06T05:12:00.445Z,101680.59
2022-08-06T05:14:35.976Z,101684.25
2022-08-06T05:17:03.010Z,101691.25
2022-08-06T05:19:36.297Z,101693.22
2022-08-06T05:22:11.162Z,101693.28
2022-08-06T05:25:00.581Z,101696.78
2022-08-06T05:27:54.110Z,101703.28
2022-08-06T05:30:16.043Z,101712.91
2022-08-06T05:32:45.640Z,101719.41
2022-08-06T05:35:17.874Z,101721.88
2022-08-06T05:38:02.057Z,101727.94
2022-08-06T05:40:53.163Z,101724.44
2022-08-06T05:43:22.633Z,101723.75
2022-08-06T05:45:53.344Z,101726.41
2022-08-06T05:48:29.467Z,101720.84
2022-08-06T05:51:11.007Z,101723.44
2022-08-06T05:54:03.868Z,101733.25
2022-08-06T05:56:39.150Z,101737.53
2022-08-06T05:59:38.140Z,101735.56
2022-08-06T06:02:07.175Z,101733.84
2022-08-06T06:04:34.730Z,101744.69
2022-08-06T06:07:04.712Z,101748.88
2022-08-06T06:09:56.484Z,101757.09
2022-08-06T06:12:21.240Z,101759.94
2022-08-06T06:14:49.512Z,101759.72
2022-08-06T06:17:39.549Z,101753.91
2022-08-06T06:20:18.598Z,101747.06
2022-08-06T06:23:32.124Z,101757.72
2022-08-06T06:26:33.806Z,101760.66
2022-08-06T06:29:16.895Z,101766.44
2022-08-06T06:32:34.923Z,101767.09
2022-08-06T06:35:14.272Z,101767.03
2022-08-06T06:38:00.124Z,101771.50
2022-08-06T06:40:46.966Z,101775.84
2022-08-06T06:43:26.519Z,101776.16
2022-08-06T06:46:39.174Z,101785.44
2022-08-06T06:49:09.651Z,101790.28
2022-08-06T06:52:08.427Z,101787.19
2022-08-06T06:54:42.098Z,101792.00
2022-08-06T06:57:12.836Z,101787.00
2022-08-06T07:00:01.358Z,101791.81
2022-08-06T07:02:37.580Z,101791.22
2022-08-06T07:05:05.751Z,101792.75
2022-08-06T07:07:36.544Z,101801.34
2022-08-06T07:10:05.196Z,101803.22
2022-08-06T07:12:39.246Z,101802.09
2022-08-06T07:15:14.995Z,101798.81
2022-08-06T07:17:48.941Z,101795.72
2022-08-06T07:20:28.878Z,101799.69
2022-08-06T07:24:03.252Z,101809.28
2022-08-06T07:25:53.950Z,101806.41
2022-08-06T07:28:29.590Z,101807.16
2022-08-06T07:31:04.294Z,101813.66
2022-08-06T07:34:00.023Z,101821.25
2022-08-06T07:36:26.750Z,101820.09
2022-08-06T07:39:00.657Z,101812.88
2022-08-06T07:41:31.733Z,101820.31
2022-08-06T07:44:17.894Z,101820.78
2022-08-06T07:46:52.274Z,101829.38
2022-08-06T07:49:31.674Z,101825.22
2022-08-06T07:52:13.759Z,101829.53
2022-08-06T07:54:45.934Z,101826.34
2022-08-06T07:57:25.261Z,101823.47
2022-08-06T07:59:55.633Z,101826.53
2022-08-06T08:02:29.653Z,101826.69
2022-08-06T08:05:16.934Z,101840.16
2022-08-06T08:07:53.538Z,101833.63
2022-08-06T08:10:29.088Z,101838.50
2022-08-06T08:12:56.669Z,101835.69
2022-08-06T08:15:24.118Z,101843.81
2022-08-06T08:17:57.935Z,101849.91
2022-08-06T08:20:34.453Z,101849.16
2022-08-06T08:23:05.492Z,101845.78
2022-08-06T08:25:40.275Z,101838.50
2022-08-06T08:28:11.246Z,101846.59
2022-08-06T08:30:41.361Z,101848.44
2022-08-06T08:33:12.159Z,101848.44
2022-08-06T08:35:50.368Z,101837.78
2022-08-06T08:38:32.180Z,101843.81
2022-08-06T08:41:10.373Z,101844.91
2022-08-06T08:44:01.279Z,101852.72
2022-08-06T08:46:38.037Z,101839.50
2022-08-06T08:49:18.931Z,101844.91
2022-08-06T08:51:49.667Z,101850.22
2022-08-06T08:54:19.752Z,101852.94
2022-08-06T08:57:06.045Z,101860.81
2022-08-06T08:59:56.989Z,101849.34
2022-08-06T09:02:24.863Z,101847.69
2022-08-06T09:04:53.529Z,101853.66
2022-08-06T09:07:25.809Z,101851.81
2022-08-06T09:10:07.369Z,101846.66
2022-08-06T09:12:45.049Z,101858.13
2022-08-06T09:15:17.246Z,101848.00
2022-08-06T09:18:11.488Z,101856.28
2022-08-06T09:20:35.228Z,101853.94
2022-08-06T09:23:07.390Z,101853.53
2022-08-06T09:25:50.982Z,101864.34
2022-08-06T09:28:39.827Z,101858.69
2022-08-06T09:31:22.217Z,101862.03
2022-08-06T09:34:30.395Z,101866.59
2022-08-06T09:36:57.156Z,101856.69
2022-08-06T09:40:05.635Z,101865.66
2022-08-06T09:42:43.051Z,101877.97
2022-08-06T09:45:15.764Z,101867.28
2022-08-06T09:47:59.085Z,101865.81
2022-08-06T09:50:42.652Z,101872.75
2022-08-06T09:53:14.161Z,101873.03
2022-08-06T09:55:42.964Z,101871.94
2022-08-06T09:58:10.577Z,101869.53
2022-08-06T10:00:39.150Z,101863.75
2022-08-06T10:04:03.217Z,101871.69
2022-08-06T10:06:22.380Z,101868.38
2022-08-06T10:08:51.533Z,101864.84
2022-08-06T10:11:41.522Z,101862.28
2022-08-06T10:14:30.277Z,101863.56
2022-08-06T10:17:13.938Z,101869.81
2022-08-06T10:19:52.616Z,101871.13
2022-08-06T10:22:21.560Z,101868.50
2022-08-06T10:24:54.648Z,101865.97
2022-08-06T10:27:36.722Z,101870.34
2022-08-06T10:30:08.265Z,101869.94
2022-08-06T10:32:54.251Z,101877.44
2022-08-06T10:35:25.688Z,101875.97
2022-08-06T10:38:00.231Z,101875.88
2022-08-06T10:40:32.247Z,101876.56
2022-08-06T10:43:08.322Z,101875.72
2022-08-06T10:45:40.694Z,101875.22
2022-08-06T10:49:01.470Z,101877.69
2022-08-06T10:51:06.237Z,101859.88
2022-08-06T10:54:00.628Z,101876.47
2022-08-06T10:56:28.585Z,101866.91
2022-08-06T10:59:07.184Z,101874.09
2022-08-06T11:02:17.127Z,101878.03
2022-08-06T11:04:52.179Z,101874.09
2022-08-06T11:08:08.389Z,101871.63
2022-08-06T11:11:21.080Z,101872.38
2022-08-06T11:14:03.598Z,101855.53
2022-08-06T11:16:34.468Z,101849.50
2022-08-06T11:19:07.624Z,101848.78
2022-08-06T11:22:02.089Z,101862.69
2022-08-06T11:24:26.973Z,101857.75
2022-08-06T11:27:01.465Z,101856.66
2022-08-06T11:30:10.829Z,101857.00
2022-08-06T11:32:43.946Z,101857.59
2022-08-06T11:35:36.041Z,101846.81
2022-08-06T11:38:24.946Z,101849.69
2022-08-06T11:40:58.710Z,101850.16
2022-08-06T11:44:03.529Z,101850.91
2022-08-06T11:46:43.113Z,101846.97
2022-08-06T11:49:24.152Z,101845.22
2022-08-06T11:52:05.815Z,101853.97
2022-08-06T11:54:38.499Z,101851.00
2022-08-06T11:57:19.645Z,101846.91
2022-08-06T11:59:59.380Z,101844.22
2022-08-06T12:02:47.314Z,101837.47
2022-08-06T12:05:14.517Z,101841.03
2022-08-06T12:07:52.489Z,101838.75
2022-08-06T12:10:29.171Z,101842.22
2022-08-06T12:12:57.461Z,101839.84
2022-08-06T12:15:59.804Z,101844.66
2022-08-06T12:18:19.524Z,101851.69
2022-08-06T12:20:53.609Z,101840.94
2022-08-06T12:23:53.991Z,101834.81
2022-08-06T12:26:11.420Z,101841.34
2022-08-06T12:28:38.828Z,101837.69
2022-08-06T12:31:36.350Z,101844.06
2022-08-06T12:33:53.555Z,101837.31
2022-08-06T12:36:32.166Z,101832.91
2022-08-06T12:39:06.198Z,101837.81
2022-08-06T12:41:46.055Z,101833.84
2022-08-06T12:44:55.922Z,101836.78
2022-08-06T12:47:15.403Z,101843.97
2022-08-06T12:49:44.338Z,101834.94
2022-08-06T12:52:18.336Z,101839.44
2022-08-06T12:54:46.900Z,101844.84
2022-08-06T12:57:28.680Z,101844.19
2022-08-06T13:00:14.711Z,101841.84
2022-08-06T13:02:42.770Z,101837.34
2022-08-06T13:05:14.914Z,101840.00
2022-08-06T13:07:44.476Z,101835.59
2022-08-06T13:10:34.832Z,101832.31
2022-08-06T13:14:14.085Z,101830.22
2022-08-06T13:16:04.844Z,101820.16
2022-08-06T13:18:47.453Z,101826.16
2022-08-06T13:21:26.968Z,101834.69
2022-08-06T13:24:12.347Z,101838.00
2022-08-06T13:26:51.303Z,101832.25
2022-08-06T13:30:31.721Z,101833.47
2022-08-06T13:32:27.364Z,101836.34
2022-08-06T13:35:03.643Z,101835.41
2022-08-06T13:37:57.565Z,101835.28
2022-08-06T13:41:03.620Z,101823.44
2022-08-06T13:43:53.996Z,101820.75
2022-08-06T13:46:29.511Z,101827.09
2022-08-06T13:49:02.738Z,101827.91
2022-08-06T13:51:48.750Z,101825.66
2022-08-06T13:54:21.698Z,101821.56
2022-08-06T13:56:51.985Z,101821.56
2022-08-06T13:59:21.808Z,101817.88
2022-08-06T14:02:07.230Z,101823.78
2022-08-06T14:04:36.404Z,101827.63
2022-08-06T14:07:03.612Z,101826.06
2022-08-06T14:09:57.982Z,101820.41
2022-08-06T14:12:18.831Z,101830.31
2022-08-06T14:14:48.578Z,101827.69
2022-08-06T14:17:17.866Z,101830.22
2022-08-06T14:20:14.636Z,101834.47
2022-08-06T14:22:36.885Z,101823.69
2022-08-06T14:25:06.286Z,101828.19
2022-08-06T14:27:43.162Z,101828.09
2022-08-06T14:30:27.876Z,101819.47
2022-08-06T14:33:10.595Z,101817.03
2022-08-06T14:35:51.026Z,101816.44
2022-08-06T14:38:20.159Z,101815.19
2022-08-06T14:41:09.648Z,101818.88
2022-08-06T14:43:57.750Z,101811.75
2022-08-06T14:46:27.254Z,101804.88
2022-08-06T14:48:58.026Z,101804.88
2022-08-06T14:51:37.624Z,101808.09
2022-08-06T14:54:15.312Z,101806.84
2022-08-06T14:56:46.018Z,101808.00
2022-08-06T14:59:23.507Z,101808.28
2022-08-06T15:01:51.675Z,101804.25
2022-08-06T15:04:22.211Z,101808.09
2022-08-06T15:06:53.757Z,101802.22
2022-08-06T15:10:04.096Z,101797.88
2022-08-06T15:12:11.979Z,101789.66
2022-08-06T15:14:44.032Z,101800.72
2022-08-06T15:17:50.160Z,101801.53
2022-08-06T15:20:09.156Z,101802.63
2022-08-06T15:22:36.986Z,101808.91
2022-08-06T15:25:17.696Z,101802.91
2022-08-06T15:27:54.070Z,101800.72
2022-08-06T15:30:22.432Z,101801.53
2022-08-06T15:32:56.539Z,101808.59
2022-08-06T15:35:38.546Z,101800.25
2022-08-06T15:38:16.019Z,101795.47
2022-08-06T15:40:44.450Z,101800.00
2022-08-06T15:43:12.523Z,101806.59
2022-08-06T15:45:50.322Z,101801.28
2022-08-06T15:48:28.682Z,101793.56
2022-08-06T15:51:27.144Z,101797.66
2022-08-06T15:53:54.413Z,101792.63
2022-08-06T15:56:34.464Z,101781.91
2022-08-06T15:59:12.296Z,101778.09
2022-08-06T16:01:52.188Z,101784.03
2022-08-06T16:04:28.634Z,101781.38
2022-08-06T16:06:57.258Z,101770.22
2022-08-06T16:09:27.941Z,101781.25
2022-08-06T16:11:57.304Z,101777.81
2022-08-06T16:14:33.796Z,101769.16
2022-08-06T16:17:09.890Z,101770.63
2022-08-06T16:19:49.535Z,101786.31
2022-08-06T16:22:19.004Z,101772.19
2022-08-06T16:24:46.303Z,101771.75
2022-08-06T16:27:16.993Z,101759.59
2022-08-06T16:29:48.416Z,101753.69
2022-08-06T16:32:22.888Z,101746.78
2022-08-06T16:34:59.843Z,101744.75
2022-08-06T16:37:33.222Z,101748.22
2022-08-06T16:40:09.120Z,101739.44
2022-08-06T16:42:37.101Z,101743.03
2022-08-06T16:48:18.527Z,101755.00
2022-08-06T16:50:41.669Z,101748.22
2022-08-06T16:54:12.179Z,101758.69
2022-08-06T16:55:57.986Z,101752.94
2022-08-06T16:58:34.144Z,101764.78
2022-08-06T17:03:56.479Z,101766.22
2022-08-06T17:06:30.164Z,101763.09
2022-08-06T17:08:58.380Z,101770.66
2022-08-06T17:11:45.450Z,101772.09
2022-08-06T17:14:20.028Z,101774.16
2022-08-06T17:17:07.224Z,101770.00
2022-08-06T17:22:28.902Z,101770.03
2022-08-06T17:24:58.181Z,101771.41
2022-08-06T17:27:43.177Z,101772.63
2022-08-06T17:30:16.058Z,101769.16
2022-08-06T17:32:46.124Z,101771.63
2022-08-06T17:35:16.366Z,101777.31
2022-08-06T17:37:45.950Z,101771.44
2022-08-06T17:40:19.694Z,101775.81
2022-08-06T17:43:22.893Z,101779.84
2022-08-06T17:46:02.517Z,101779.03
2022-08-06T17:48:48.324Z,101779.66
2022-08-06T17:51:21.102Z,101785.81
2022-08-06T17:53:53.594Z,101783.09
2022-08-06T17:56:30.247Z,101786.38
2022-08-06T17:59:16.452Z,101784.53
2022-08-06T18:01:50.369Z,101787.91
2022-08-06T18:04:30.321Z,101790.16
2022-08-06T18:07:01.245Z,101781.81
2022-08-06T18:10:10.399Z,101784.63
2022-08-06T18:12:27.799Z,101790.03
2022-08-06T18:14:55.874Z,101796.50
2022-08-06T18:17:47.913Z,101798.69
2022-08-06T18:20:11.483Z,101811.63
2022-08-06T18:22:42.632Z,101799.28
2022-08-06T18:25:15.020Z,101807.28
2022-08-06T18:28:03.729Z,101812.44
2022-08-06T18:30:46.825Z,101811.25
2022-08-06T18:33:15.687Z,101811.16
2022-08-06T18:35:55.020Z,101814.50
2022-08-06T18:38:32.151Z,101812.00
2022-08-06T18:41:06.104Z,101815.84
2022-08-06T18:43:54.728Z,101815.31
2022-08-06T18:46:55.497Z,101819.69
2022-08-06T18:49:20.461Z,101824.81
2022-08-06T18:51:57.626Z,101823.00
2022-08-06T18:54:25.292Z,101830.81
2022-08-06T18:56:53.364Z,101832.28
2022-08-06T18:59:25.911Z,101832.06
2022-08-06T19:01:58.109Z,101835.56
2022-08-06T19:04:28.295Z,101838.75
2022-08-06T19:07:03.005Z,101837.41
2022-08-06T19:09:33.906Z,101845.94
2022-08-06T19:12:12.854Z,101850.75
2022-08-06T19:14:44.344Z,101849.44
2022-08-06T19:17:17.688Z,101849.91
2022-08-06T19:20:18.723Z,101862.03
2022-08-06T19:22:52.914Z,101860.19
2022-08-06T19:25:22.809Z,101864.28
2022-08-06T19:28:35.128Z,101864.88
2022-08-06T19:30:57.430Z,101864.34
2022-08-06T19:33:24.618Z,101865.56
2022-08-06T19:36:07.252Z,101858.03
2022-08-06T19:38:39.596Z,101864.69
2022-08-06T19:41:09.992Z,101859.81
2022-08-06T19:44:25.849Z,101863.78
2022-08-06T19:46:35.015Z,101868.63
2022-08-06T19:49:04.350Z,101871.75
2022-08-06T19:52:04.509Z,101866.00
2022-08-06T19:54:25.983Z,101867.31
2022-08-06T19:57:06.318Z,101873.22
2022-08-06T20:00:50.467Z,101873.56
2022-08-06T20:02:29.012Z,101875.81
2022-08-06T20:04:58.030Z,101875.38
2022-08-06T20:07:34.204Z,101875.00
2022-08-06T20:10:03.405Z,101882.69
2022-08-06T20:12:35.202Z,101891.03
2022-08-06T20:15:03.850Z,101887.97
2022-08-06T20:17:46.166Z,101893.81
2022-08-06T20:20:28.879Z,101901.31
2022-08-06T20:23:08.049Z,101899.94
2022-08-06T20:26:08.839Z,101904.81
2022-08-06T20:29:08.855Z,101906.97
2022-08-06T20:31:18.375Z,101900.25
2022-08-06T20:33:58.080Z,101897.91
2022-08-06T20:36:31.116Z,101900.91
2022-08-06T20:38:59.477Z,101897.59
2022-08-06T20:41:57.286Z,101903.97
2022-08-06T20:44:18.196Z,101905.13
2022-08-06T20:47:01.620Z,101909.84
2022-08-06T20:50:02.567Z,101904.69
2022-08-06T20:52:24.211Z,101904.88
2022-08-06T20:54:53.001Z,101905.97
2022-08-06T20:57:26.570Z,101905.31
2022-08-06T20:59:57.787Z,101901.03
2022-08-06T21:02:31.811Z,101912.00
2022-08-06T21:05:15.650Z,101906.91
2022-08-06T21:07:56.864Z,101911.66
2022-08-06T21:10:30.627Z,101913.72
2022-08-06T21:13:06.694Z,101909.44
2022-08-06T21:15:53.878Z,101916.03
2022-08-06T21:18:26.200Z,101915.47
2022-08-06T21:20:56.121Z,101913.13
2022-08-06T21:23:26.083Z,101924.81
2022-08-06T21:26:15.328Z,101912.78
2022-08-06T21:28:54.381Z,101913.81
2022-08-06T21:31:27.689Z,101916.78
2022-08-06T21:33:56.610Z,101915.19
2022-08-06T21:36:26.018Z,101919.84
2022-08-06T21:38:55.293Z,101924.44
2022-08-06T21:41:54.710Z,101918.34
2022-08-06T21:44:18.069Z,101920.34
2022-08-06T21:46:50.130Z,101919.63
2022-08-06T21:50:00.694Z,101925.13
2022-08-06T21:52:15.856Z,101926.28
2022-08-06T21:54:49.696Z,101920.41
2022-08-06T21:57:21.137Z,101923.34
2022-08-06T22:00:20.308Z,101917.47
2022-08-06T22:02:58.159Z,101923.91
2022-08-06T22:06:20.662Z,101922.41
2022-08-06T22:08:13.785Z,101928.00
2022-08-06T22:10:41.902Z,101922.81
2022-08-06T22:13:19.247Z,101930.28
2022-08-06T22:15:55.407Z,101928.78
2022-08-06T22:18:28.998Z,101919.09
2022-08-06T22:20:59.654Z,101923.75
2022-08-06T22:23:30.133Z,101923.00
2022-08-06T22:26:00.483Z,101922.22
2022-08-06T22:28:37.951Z,101925.09
2022-08-06T22:31:08.708Z,101929.75
2022-08-06T22:33:58.395Z,101923.69
2022-08-06T22:36:34.391Z,101927.50
2022-08-06T22:39:05.006Z,101920.53
2022-08-06T22:41:42.623Z,101927.78
2022-08-06T22:44:31.046Z,101920.94
2022-08-06T22:47:09.819Z,101919.31
2022-08-06T22:49:59.249Z,101923.03
2022-08-06T22:52:44.991Z,101921.50
2022-08-06T22:55:18.208Z,101916.38
2022-08-06T22:59:01.925Z,101915.63
2022-08-06T23:00:36.015Z,101914.94
2022-08-06T23:03:11.840Z,101914.28
2022-08-06T23:05:44.627Z,101915.22
2022-08-06T23:08:15.191Z,101915.41
2022-08-06T23:10:48.201Z,101911.06
2022-08-06T23:13:25.239Z,101913.78
2022-08-06T23:15:58.539Z,101914.06
2022-08-06T23:18:30.348Z,101910.66
2022-08-06T23:21:22.100Z,101910.75
2022-08-06T23:23:53.747Z,101907.44
2022-08-06T23:26:31.054Z,101904.00
2022-08-06T23:29:01.606Z,101913.75
2022-08-06T23:31:37.419Z,101908.56
2022-08-06T23:34:21.032Z,101908.66
2022-08-06T23:36:54.426Z,101905.31
2022-08-06T23:39:37.497Z,101908.94
2022-08-06T23:42:14.678Z,101903.81
2022-08-06T23:44:52.685Z,101911.16
2022-08-06T23:47:52.258Z,101906.13
2022-08-06T23:50:09.719Z,101904.50
2022-08-06T23:52:41.976Z,101907.16
2022-08-06T23:55:22.694Z,101909.81
2022-08-06T23:57:57.170Z,101908.09
